createdAt,value
2017-12-10T00:00:37.906Z,3.67
2017-12-10T00:03:10.713Z,2.67
2017-12-10T00:05:44.524Z,4.33
2017-12-10T00:08:17.938Z,3.00
2017-12-10T00:10:51.446Z,3.00
2017-12-10T00:13:25.489Z,3.00
2017-12-10T00:15:59.336Z,3.00
2017-12-10T00:18:32.764Z,3.00
2017-12-10T00:21:06.615Z,2.67
2017-12-10T00:23:40.610Z,4.00
2017-12-10T00:26:14.467Z,2.50
2017-12-10T00:28:47.979Z,2.00
2017-12-10T00:31:21.846Z,2.83
2017-12-10T00:33:55.280Z,2.00
2017-12-10T00:36:30.575Z,2.83
2017-12-10T00:39:04.099Z,2.17
2017-12-10T00:41:37.603Z,3.00
2017-12-10T00:44:11.046Z,2.50
2017-12-10T00:46:44.813Z,2.83
2017-12-10T00:49:18.262Z,2.00
2017-12-10T00:51:51.859Z,2.00
2017-12-10T00:54:25.379Z,1.83
2017-12-10T00:56:59.917Z,2.83
2017-12-10T00:59:33.294Z,2.00
2017-12-10T01:02:07.346Z,2.17
2017-12-10T01:04:41.428Z,2.00
2017-12-10T01:07:15.176Z,2.83
2017-12-10T01:09:48.637Z,3.00
2017-12-10T01:12:22.391Z,2.00
2017-12-10T01:14:55.825Z,2.50
2017-12-10T01:17:29.638Z,2.00
2017-12-10T01:20:03.161Z,2.83
2017-12-10T01:22:36.668Z,2.00
2017-12-10T01:25:10.181Z,2.00
2017-12-10T01:27:43.939Z,2.50
2017-12-10T01:30:17.775Z,2.50
2017-12-10T01:32:51.532Z,2.00
2017-12-10T01:35:31.527Z,1.83
2017-12-10T01:38:05.355Z,1.83
2017-12-10T01:40:38.776Z,2.33
2017-12-10T01:43:12.627Z,2.33
2017-12-10T01:45:46.637Z,2.00
2017-12-10T01:48:20.385Z,2.00
2017-12-10T01:50:54.262Z,2.67
2017-12-10T01:53:28.851Z,2.00
2017-12-10T01:56:02.351Z,2.17
2017-12-10T01:58:35.901Z,2.00
2017-12-10T02:01:09.313Z,2.67
2017-12-10T02:03:43.190Z,2.00
2017-12-10T02:06:16.621Z,2.00
2017-12-10T02:08:50.154Z,1.33
2017-12-10T02:11:23.594Z,2.00
2017-12-10T02:13:57.997Z,2.33
2017-12-10T02:16:31.724Z,3.00
2017-12-10T02:19:05.316Z,2.00
2017-12-10T02:21:38.819Z,2.00
2017-12-10T02:24:12.404Z,2.50
2017-12-10T02:26:45.644Z,2.00
2017-12-10T02:29:19.258Z,2.33
2017-12-10T02:31:52.854Z,2.00
2017-12-10T02:34:26.775Z,2.83
2017-12-10T02:36:59.971Z,3.00
2017-12-10T02:39:33.541Z,3.00
2017-12-10T02:42:07.049Z,2.33
2017-12-10T02:44:40.715Z,2.33
2017-12-10T02:47:13.935Z,3.00
2017-12-10T02:49:47.498Z,3.00
2017-12-10T02:52:21.053Z,3.00
2017-12-10T02:54:55.437Z,3.00
2017-12-10T02:57:28.673Z,3.67
2017-12-10T03:00:02.471Z,3.00
2017-12-10T03:02:36.548Z,2.17
2017-12-10T03:05:10.104Z,3.00
2017-12-10T03:07:43.322Z,3.67
2017-12-10T03:10:16.645Z,3.00
2017-12-10T03:12:49.882Z,3.00
2017-12-10T03:15:23.513Z,4.00
2017-12-10T03:17:56.893Z,3.00
2017-12-10T03:20:31.242Z,2.50
2017-12-10T03:23:04.501Z,4.33
2017-12-10T03:25:38.053Z,3.67
2017-12-10T03:28:11.565Z,4.33
2017-12-10T03:30:45.595Z,3.33
2017-12-10T03:33:18.811Z,4.33
2017-12-10T03:35:52.158Z,5.00
2017-12-10T03:38:25.531Z,3.67
2017-12-10T03:40:59.396Z,5.00
2017-12-10T03:43:33.046Z,3.00
2017-12-10T03:46:07.199Z,5.00
2017-12-10T03:48:40.704Z,4.33
2017-12-10T03:51:14.208Z,5.00
2017-12-10T03:53:47.673Z,4.67
2017-12-10T03:56:21.459Z,4.00
2017-12-10T03:58:55.574Z,4.83
2017-12-10T04:01:29.384Z,5.00
2017-12-10T04:04:02.766Z,4.67
2017-12-10T04:06:37.392Z,4.67
2017-12-10T04:09:10.838Z,3.33
2017-12-10T04:11:44.310Z,4.67
2017-12-10T04:14:17.752Z,5.00
2017-12-10T04:16:51.526Z,5.00
2017-12-10T04:19:25.003Z,4.00
2017-12-10T04:21:58.891Z,5.00
2017-12-10T04:24:32.268Z,5.00
2017-12-10T04:27:05.747Z,3.67
2017-12-10T04:29:40.713Z,5.00
2017-12-10T04:32:14.751Z,4.67
2017-12-10T04:34:46.405Z,5.33
2017-12-10T04:37:19.839Z,5.00
2017-12-10T04:39:52.424Z,5.60
2017-12-10T04:42:26.648Z,4.86
2017-12-10T04:44:58.267Z,6.00
2017-12-10T04:47:31.076Z,4.20
2017-12-10T04:50:05.255Z,5.86
2017-12-10T04:52:37.949Z,5.60
2017-12-10T04:55:11.334Z,5.33
2017-12-10T04:57:43.913Z,5.60
2017-12-10T05:00:17.657Z,6.00
2017-12-10T05:02:51.976Z,5.57
2017-12-10T05:05:27.506Z,5.86
2017-12-10T05:08:01.342Z,5.50
2017-12-10T05:10:34.272Z,5.40
2017-12-10T05:13:07.047Z,5.60
2017-12-10T05:15:40.563Z,6.00
2017-12-10T05:18:16.183Z,5.29
2017-12-10T05:20:48.183Z,6.00
2017-12-10T05:23:20.433Z,6.00
2017-12-10T05:25:53.408Z,6.40
2017-12-10T05:28:27.829Z,5.00
2017-12-10T05:31:00.928Z,7.00
2017-12-10T05:33:35.284Z,5.71
2017-12-10T05:36:09.813Z,5.43
2017-12-10T05:38:44.040Z,6.00
2017-12-10T05:41:18.602Z,6.29
2017-12-10T05:43:50.317Z,6.00
2017-12-10T05:46:23.470Z,6.00
2017-12-10T05:48:55.238Z,5.00
2017-12-10T05:51:29.408Z,6.00
2017-12-10T05:54:03.583Z,5.86
2017-12-10T05:56:39.170Z,6.14
2017-12-10T05:59:12.653Z,6.00
2017-12-10T06:01:44.395Z,5.33
2017-12-10T06:04:17.850Z,5.67
2017-12-10T06:06:49.520Z,6.00
2017-12-10T06:09:23.307Z,5.00
2017-12-10T06:11:57.314Z,5.17
2017-12-10T06:14:30.801Z,5.00
2017-12-10T06:17:03.305Z,5.00
2017-12-10T06:19:37.763Z,5.43
2017-12-10T06:22:12.811Z,5.71
2017-12-10T06:24:46.320Z,3.00
2017-12-10T06:27:18.821Z,5.20
2017-12-10T06:29:51.305Z,6.00
2017-12-10T06:32:25.502Z,5.33
2017-12-10T06:34:58.319Z,6.00
2017-12-10T06:37:31.846Z,5.50
2017-12-10T06:40:05.243Z,5.67
2017-12-10T06:42:39.196Z,4.33
2017-12-10T06:45:15.128Z,5.00
2017-12-10T06:47:48.612Z,5.00
2017-12-10T06:50:22.999Z,5.17
2017-12-10T06:52:56.466Z,5.00
2017-12-10T06:55:29.893Z,5.00
2017-12-10T06:58:03.353Z,5.00
2017-12-10T07:00:37.040Z,5.00
2017-12-10T07:03:10.625Z,5.33
2017-12-10T07:05:44.032Z,4.33
2017-12-10T07:08:17.600Z,4.33
2017-12-10T07:10:51.319Z,3.33
2017-12-10T07:13:25.135Z,4.00
2017-12-10T07:15:58.859Z,5.00
2017-12-10T07:18:32.710Z,3.33
2017-12-10T07:21:06.212Z,3.33
2017-12-10T07:23:39.976Z,3.67
2017-12-10T07:26:13.353Z,4.67
2017-12-10T07:28:45.889Z,2.20
2017-12-10T07:31:19.574Z,3.00
2017-12-10T07:33:53.687Z,3.00
2017-12-10T07:36:27.095Z,3.33
2017-12-10T07:39:00.921Z,3.67
2017-12-10T07:41:39.329Z,4.33
2017-12-10T07:44:13.080Z,3.33
2017-12-10T07:46:46.814Z,2.83
2017-12-10T07:49:20.616Z,3.00
2017-12-10T07:51:54.065Z,4.67
2017-12-10T07:54:27.804Z,3.33
2017-12-10T07:57:01.309Z,4.00
2017-12-10T07:59:34.869Z,5.00
2017-12-10T08:02:08.584Z,2.83
2017-12-10T08:04:43.212Z,3.00
2017-12-10T08:07:16.869Z,3.00
2017-12-10T08:09:51.310Z,3.00
2017-12-10T08:12:24.575Z,2.83
2017-12-10T08:14:57.999Z,2.83
2017-12-10T08:17:32.088Z,3.00
2017-12-10T08:20:06.030Z,2.67
2017-12-10T08:22:39.594Z,2.83
2017-12-10T08:25:13.420Z,3.00
2017-12-10T08:27:48.352Z,2.00
2017-12-10T08:30:23.370Z,2.00
2017-12-10T08:32:57.143Z,2.00
2017-12-10T08:35:31.102Z,2.00
2017-12-10T08:38:04.579Z,2.33
2017-12-10T08:40:38.105Z,2.17
2017-12-10T08:43:11.619Z,2.00
2017-12-10T08:45:45.320Z,3.00
2017-12-10T08:48:18.863Z,2.00
2017-12-10T08:50:53.373Z,2.67
2017-12-10T08:53:26.864Z,2.00
2017-12-10T08:56:08.104Z,2.67
2017-12-10T08:58:41.593Z,2.00
2017-12-10T09:01:15.307Z,2.83
2017-12-10T09:03:49.585Z,2.83
2017-12-10T09:06:23.288Z,2.00
2017-12-10T09:08:56.809Z,2.00
2017-12-10T09:11:30.380Z,3.00
2017-12-10T09:14:03.708Z,2.00
2017-12-10T09:16:37.685Z,2.67
2017-12-10T09:19:11.337Z,2.00
2017-12-10T09:21:45.772Z,2.00
2017-12-10T09:24:19.280Z,2.83
2017-12-10T09:26:53.484Z,1.67
2017-12-10T09:29:27.202Z,2.17
2017-12-10T09:32:01.763Z,3.00
2017-12-10T09:34:35.347Z,1.00
2017-12-10T09:37:09.051Z,1.83
2017-12-10T09:39:42.545Z,1.83
2017-12-10T09:42:16.076Z,2.83
2017-12-10T09:44:51.096Z,2.57
2017-12-10T09:47:25.500Z,2.83
2017-12-10T09:49:58.978Z,2.50
2017-12-10T09:52:32.496Z,2.83
2017-12-10T09:55:06.065Z,2.67
2017-12-10T09:57:39.855Z,2.00
2017-12-10T10:00:16.030Z,2.00
2017-12-10T10:02:50.878Z,2.00
2017-12-10T10:05:24.360Z,2.83
2017-12-10T10:07:57.889Z,2.67
2017-12-10T10:10:31.732Z,2.00
2017-12-10T10:13:05.319Z,2.17
2017-12-10T10:15:39.187Z,2.00
2017-12-10T10:18:13.173Z,2.17
2017-12-10T10:20:47.764Z,1.83
2017-12-10T10:23:21.572Z,1.83
2017-12-10T10:25:55.093Z,1.67
2017-12-10T10:28:28.881Z,1.50
2017-12-10T10:31:02.527Z,2.00
2017-12-10T10:33:36.044Z,2.00
2017-12-10T10:36:09.532Z,1.17
2017-12-10T10:38:43.890Z,1.17
2017-12-10T10:41:17.446Z,1.00
2017-12-10T10:43:50.931Z,1.33
2017-12-10T10:46:24.535Z,1.67
2017-12-10T10:48:58.557Z,1.50
2017-12-10T10:51:32.451Z,2.00
2017-12-10T10:54:06.270Z,2.00
2017-12-10T10:56:39.755Z,1.67
2017-12-10T10:59:13.279Z,1.50
2017-12-10T11:01:47.693Z,2.00
2017-12-10T11:04:21.536Z,1.83
2017-12-10T11:06:54.983Z,2.33
2017-12-10T11:09:28.837Z,1.33
2017-12-10T11:12:02.784Z,2.17
2017-12-10T11:14:36.373Z,2.67
2017-12-10T11:17:10.011Z,2.00
2017-12-10T11:19:44.048Z,2.00
2017-12-10T11:22:17.539Z,2.00
2017-12-10T11:24:52.257Z,2.00
2017-12-10T11:27:26.612Z,1.83
2017-12-10T11:30:03.321Z,1.17
2017-12-10T11:32:36.939Z,1.00
2017-12-10T11:35:11.068Z,1.83
2017-12-10T11:37:45.411Z,2.00
2017-12-10T11:40:18.893Z,1.67
2017-12-10T11:42:53.302Z,1.33
2017-12-10T11:45:27.382Z,1.50
2017-12-10T11:48:00.896Z,1.83
2017-12-10T11:50:36.587Z,2.00
2017-12-10T11:53:10.153Z,1.17
2017-12-10T11:55:44.418Z,1.50
2017-12-10T11:58:17.977Z,1.17
2017-12-10T12:00:53.426Z,2.00
2017-12-10T12:03:27.216Z,1.67
2017-12-10T12:06:00.925Z,2.00
2017-12-10T12:08:34.425Z,1.67
2017-12-10T12:11:07.970Z,1.67
2017-12-10T12:13:41.525Z,1.50
2017-12-10T12:16:15.723Z,2.00
2017-12-10T12:18:49.385Z,2.00
2017-12-10T12:21:23.399Z,2.00
2017-12-10T12:23:56.969Z,1.00
2017-12-10T12:26:30.771Z,2.00
2017-12-10T12:29:04.310Z,2.33
2017-12-10T12:31:38.471Z,1.67
2017-12-10T12:34:12.078Z,2.00
2017-12-10T12:36:56.325Z,2.00
2017-12-10T12:39:29.872Z,2.00
2017-12-10T12:42:03.762Z,1.67
2017-12-10T12:44:37.407Z,2.00
2017-12-10T12:47:11.031Z,1.83
2017-12-10T12:49:45.348Z,1.50
2017-12-10T12:52:18.861Z,1.67
2017-12-10T12:54:52.923Z,2.00
2017-12-10T12:57:26.421Z,1.00
2017-12-10T12:59:59.869Z,2.00
2017-12-10T13:02:33.744Z,2.00
2017-12-10T13:05:07.190Z,2.00
2017-12-10T13:07:40.670Z,2.00
2017-12-10T13:10:14.252Z,1.50
2017-12-10T13:12:48.390Z,1.50
2017-12-10T13:15:22.508Z,1.67
2017-12-10T13:17:56.960Z,1.50
2017-12-10T13:20:30.589Z,2.00
2017-12-10T13:23:04.094Z,1.33
2017-12-10T13:25:37.786Z,2.50
2017-12-10T13:28:11.327Z,2.00
2017-12-10T13:30:44.694Z,2.00
2017-12-10T13:33:18.224Z,2.00
2017-12-10T13:35:52.023Z,2.00
2017-12-10T13:38:25.549Z,3.00
2017-12-10T13:40:59.051Z,2.00
2017-12-10T13:43:32.586Z,2.00
2017-12-10T13:46:06.475Z,2.67
2017-12-10T13:48:40.507Z,2.00
2017-12-10T13:51:14.347Z,2.00
2017-12-10T13:53:48.514Z,2.00
2017-12-10T13:56:21.987Z,1.33
2017-12-10T13:58:55.574Z,2.00
2017-12-10T14:01:30.476Z,2.00
2017-12-10T14:04:11.785Z,2.00
2017-12-10T14:06:45.082Z,2.17
2017-12-10T14:09:18.418Z,2.33
2017-12-10T14:11:51.675Z,2.00
2017-12-10T14:14:24.980Z,3.00
2017-12-10T14:16:59.019Z,4.33
2017-12-10T14:19:32.547Z,2.67
2017-12-10T14:22:07.069Z,3.00
2017-12-10T14:24:40.617Z,3.67
2017-12-10T14:27:13.843Z,4.67
2017-12-10T14:29:47.162Z,5.00
2017-12-10T14:32:18.973Z,5.00
2017-12-10T14:34:53.037Z,5.14
2017-12-10T14:37:26.396Z,3.67
2017-12-10T14:40:00.645Z,2.83
2017-12-10T14:42:33.893Z,3.00
2017-12-10T14:45:07.425Z,3.33
2017-12-10T14:47:40.968Z,3.00
2017-12-10T14:50:14.293Z,5.00
2017-12-10T14:52:47.521Z,3.50
2017-12-10T14:55:20.810Z,4.00
2017-12-10T14:57:54.072Z,3.00
2017-12-10T15:00:27.677Z,3.00
2017-12-10T15:03:00.965Z,3.67
2017-12-10T15:05:35.003Z,3.00
2017-12-10T15:08:08.230Z,2.50
2017-12-10T15:10:41.550Z,3.00
2017-12-10T15:13:14.758Z,5.00
2017-12-10T15:15:48.042Z,5.00
2017-12-10T15:21:21.391Z,5.00
2017-12-10T15:23:55.635Z,3.33
2017-12-10T15:26:28.925Z,3.33
2017-12-10T15:29:02.593Z,4.33
2017-12-10T15:31:36.023Z,4.33
2017-12-10T15:34:09.785Z,3.00
2017-12-10T15:36:44.002Z,3.00
2017-12-10T15:39:17.707Z,5.33
2017-12-10T15:41:51.488Z,5.00
2017-12-10T15:44:25.624Z,4.33
2017-12-10T15:46:59.947Z,5.17
2017-12-10T15:49:33.752Z,5.00
2017-12-10T15:52:07.165Z,6.00
2017-12-10T16:00:49.157Z,5.80
2017-12-10T16:03:22.095Z,7.20
2017-12-10T16:05:56.427Z,5.71
2017-12-10T16:08:29.678Z,7.25
2017-12-10T16:11:05.373Z,7.00
2017-12-10T16:13:37.304Z,6.33
2017-12-10T16:16:12.073Z,6.43
2017-12-10T16:18:43.671Z,7.33
2017-12-10T16:21:16.070Z,7.80
2017-12-10T16:23:48.931Z,7.00
2017-12-10T16:26:20.382Z,7.00
2017-12-10T16:28:51.859Z,6.33
2017-12-10T16:31:24.075Z,6.00
2017-12-10T16:33:56.975Z,7.40
2017-12-10T16:36:28.406Z,5.67
2017-12-10T16:39:00.278Z,6.00
2017-12-10T16:41:31.768Z,9.00
2017-12-10T16:44:03.570Z,9.00
2017-12-10T16:46:35.353Z,8.00
2017-12-10T16:49:08.061Z,8.67
2017-12-10T16:51:40.732Z,9.25
2017-12-10T16:54:12.247Z,9.33
2017-12-10T16:56:43.683Z,9.00
2017-12-10T16:59:15.460Z,9.00
2017-12-10T17:01:47.264Z,8.67
2017-12-10T17:04:19.488Z,9.67
2017-12-10T17:06:51.851Z,7.33
2017-12-10T17:09:24.258Z,8.00
2017-12-10T17:11:56.515Z,7.80
2017-12-10T17:14:28.943Z,9.00
2017-12-10T17:17:01.352Z,9.25
2017-12-10T17:19:33.170Z,9.00
2017-12-10T17:22:04.466Z,10.00
2017-12-10T17:24:35.974Z,9.00
2017-12-10T17:27:07.776Z,7.00
2017-12-10T17:29:39.326Z,9.00
2017-12-10T17:32:11.200Z,9.67
2017-12-10T17:34:43.046Z,9.00
2017-12-10T17:37:14.593Z,10.00
2017-12-10T17:39:47.056Z,9.25
2017-12-10T17:42:18.531Z,10.00
2017-12-10T17:44:49.839Z,9.33
2017-12-10T17:47:22.284Z,9.00
2017-12-10T17:49:54.063Z,9.00
2017-12-10T17:52:25.627Z,10.00
2017-12-10T17:54:57.463Z,10.00
2017-12-10T17:57:28.711Z,9.00
2017-12-10T18:00:00.554Z,10.33
2017-12-10T18:02:31.847Z,9.00
2017-12-10T18:05:04.553Z,10.67
2017-12-10T18:07:36.956Z,10.00
2017-12-10T18:10:08.798Z,9.67
2017-12-10T18:12:40.338Z,10.00
2017-12-10T18:15:13.963Z,10.00
2017-12-10T18:17:46.549Z,10.67
2017-12-10T18:20:18.148Z,11.00
2017-12-10T18:22:49.674Z,10.00
2017-12-10T18:25:22.512Z,9.67
2017-12-10T18:27:54.018Z,10.67
2017-12-10T18:30:25.923Z,10.33
2017-12-10T18:32:57.734Z,13.00
2017-12-10T18:35:29.464Z,11.00
2017-12-10T18:38:01.964Z,11.00
2017-12-10T18:40:33.544Z,12.33
2017-12-10T18:43:05.423Z,10.67
2017-12-10T18:45:38.264Z,11.00
2017-12-10T18:48:10.037Z,9.33
2017-12-10T18:50:42.190Z,12.33
2017-12-10T18:53:14.051Z,11.33
2017-12-10T18:55:46.459Z,11.00
2017-12-10T18:58:19.055Z,11.00
2017-12-10T19:00:50.760Z,10.67
2017-12-10T19:03:22.629Z,11.00
2017-12-10T19:05:54.212Z,10.00
2017-12-10T19:08:25.704Z,12.33
2017-12-10T19:10:57.261Z,10.67
2017-12-10T19:13:28.787Z,9.00
2017-12-10T19:16:00.488Z,10.00
2017-12-10T19:18:32.862Z,10.00
2017-12-10T19:21:04.991Z,10.33
2017-12-10T19:23:36.502Z,10.33
2017-12-10T19:26:08.103Z,10.00
2017-12-10T19:28:39.735Z,10.00
2017-12-10T19:31:11.401Z,10.00
2017-12-10T19:33:44.959Z,9.00
2017-12-10T19:36:16.908Z,8.33
2017-12-10T19:38:48.999Z,9.00
2017-12-10T19:41:20.618Z,9.00
2017-12-10T19:43:53.007Z,7.25
2017-12-10T19:46:26.063Z,7.00
2017-12-10T19:48:58.770Z,7.00
2017-12-10T19:51:30.486Z,8.33
2017-12-10T19:54:02.934Z,7.00
2017-12-10T19:56:35.888Z,6.00
2017-12-10T19:59:08.392Z,7.00
2017-12-10T20:01:41.414Z,6.00
2017-12-10T20:04:14.610Z,5.60
2017-12-10T20:06:47.900Z,5.00
2017-12-10T20:09:21.340Z,6.00
2017-12-10T20:11:55.664Z,6.71
2017-12-10T20:14:29.833Z,5.29
2017-12-10T20:17:01.996Z,6.00
2017-12-10T20:19:35.252Z,5.83
2017-12-10T20:22:09.313Z,5.17
2017-12-10T20:24:41.823Z,6.00
2017-12-10T20:27:14.379Z,7.00
2017-12-10T20:29:47.137Z,10.00
2017-12-10T20:32:20.301Z,11.00
2017-12-10T20:34:51.804Z,10.00
2017-12-10T20:37:23.370Z,10.67
2017-12-10T20:39:54.688Z,12.00
2017-12-10T20:42:27.451Z,11.33
2017-12-10T20:44:58.968Z,10.00
2017-12-10T20:47:30.590Z,10.00
2017-12-10T20:50:02.112Z,7.00
2017-12-10T20:52:33.663Z,9.00
2017-12-10T20:55:05.128Z,7.67
2017-12-10T20:57:36.788Z,7.67
2017-12-10T21:00:09.194Z,7.60
2017-12-10T21:02:41.889Z,7.00
2017-12-10T21:05:13.492Z,6.33
2017-12-10T21:07:45.423Z,7.67
2017-12-10T21:10:18.151Z,7.00
2017-12-10T21:12:50.570Z,8.33
2017-12-10T21:15:22.022Z,7.00
2017-12-10T21:17:55.381Z,7.00
2017-12-10T21:20:29.856Z,6.86
2017-12-10T21:23:01.670Z,6.00
2017-12-10T21:25:34.138Z,7.00
2017-12-10T21:28:08.706Z,6.71
2017-12-10T21:30:42.154Z,4.67
2017-12-10T21:33:16.492Z,3.57
2017-12-10T21:35:50.236Z,5.50
2017-12-10T21:38:22.907Z,5.00
2017-12-10T21:40:56.463Z,5.83
2017-12-10T21:43:30.748Z,6.43
2017-12-10T21:46:02.416Z,7.00
2017-12-10T21:48:36.690Z,6.71
2017-12-10T21:51:10.198Z,6.67
2017-12-10T21:53:42.012Z,6.00
2017-12-10T21:56:13.683Z,5.00
2017-12-10T21:58:46.254Z,7.00
2017-12-10T22:01:20.108Z,6.00
2017-12-10T22:03:52.107Z,5.00
2017-12-10T22:06:24.782Z,6.60
2017-12-10T22:08:58.217Z,5.00
2017-12-10T22:11:30.825Z,4.60
2017-12-10T22:14:05.243Z,3.00
2017-12-10T22:16:39.243Z,2.00
2017-12-10T22:19:12.738Z,1.33
2017-12-10T22:21:46.803Z,1.50
2017-12-10T22:24:20.291Z,1.00
2017-12-10T22:26:53.682Z,1.00
2017-12-10T22:29:27.448Z,1.00
2017-12-10T22:32:01.185Z,0.83
2017-12-10T22:34:34.604Z,0.50
2017-12-10T22:37:08.977Z,1.00
2017-12-10T22:39:42.710Z,0.67
2017-12-10T22:42:16.177Z,0.33
2017-12-10T22:44:51.321Z,0.67
2017-12-10T22:47:24.920Z,0.00
2017-12-10T22:49:58.597Z,0.00
2017-12-10T22:52:32.018Z,0.00
2017-12-10T22:55:05.438Z,0.00
2017-12-10T22:57:39.793Z,0.00
2017-12-10T23:00:15.097Z,0.00
2017-12-10T23:02:52.042Z,0.00
2017-12-10T23:05:27.285Z,0.00
2017-12-10T23:08:00.641Z,0.00
2017-12-10T23:10:34.396Z,0.00
2017-12-10T23:13:07.993Z,0.00
2017-12-10T23:18:11.544Z,0.00
2017-12-10T23:20:45.155Z,0.00
2017-12-10T23:23:18.757Z,0.00
2017-12-10T23:25:52.704Z,0.00
2017-12-10T23:28:26.823Z,0.00
2017-12-10T23:31:00.521Z,0.00
2017-12-10T23:33:34.164Z,0.00
2017-12-10T23:36:07.849Z,0.00
2017-12-10T23:38:41.575Z,0.00
2017-12-10T23:41:15.839Z,0.00
2017-12-10T23:43:49.311Z,0.00
2017-12-10T23:46:23.065Z,0.00
2017-12-10T23:48:56.897Z,0.33
2017-12-10T23:51:30.991Z,0.00
2017-12-10T23:54:04.705Z,0.00
2017-12-10T23:56:38.742Z,1.00
2017-12-10T23:59:12.463Z,0.33
